createdAt,value
2024-03-02T00:00:32.053Z,981.43
2024-03-02T00:01:32.154Z,981.42
2024-03-02T00:02:31.986Z,981.43
2024-03-02T00:03:31.973Z,981.45
2024-03-02T00:04:31.980Z,981.47
2024-03-02T00:05:31.961Z,981.46
2024-03-02T00:06:31.971Z,981.46
2024-03-02T00:07:31.949Z,981.41
2024-03-02T00:08:31.948Z,981.39
2024-03-02T00:09:31.965Z,981.38
2024-03-02T00:10:31.925Z,981.39
2024-03-02T00:11:32.005Z,981.36
2024-03-02T00:12:31.930Z,981.38
2024-03-02T00:13:31.905Z,981.35
2024-03-02T00:14:31.936Z,981.47
2024-03-02T00:15:31.902Z,981.44
2024-03-02T00:16:31.926Z,981.40
2024-03-02T00:17:31.893Z,981.39
2024-03-02T00:18:31.931Z,981.41
2024-03-02T00:19:31.864Z,981.41
2024-03-02T00:20:31.868Z,981.39
2024-03-02T00:21:31.880Z,981.39
2024-03-02T00:22:31.854Z,981.40
2024-03-02T00:23:31.868Z,981.37
2024-03-02T00:24:31.856Z,981.39
2024-03-02T00:25:31.856Z,981.44
2024-03-02T00:26:31.824Z,981.47
2024-03-02T00:27:31.842Z,981.45
2024-03-02T00:28:31.824Z,981.49
2024-03-02T00:29:31.799Z,981.46
2024-03-02T00:30:31.817Z,981.48
2024-03-02T00:31:31.816Z,981.48
2024-03-02T00:32:31.805Z,981.49
2024-03-02T00:33:31.804Z,981.47
2024-03-02T00:34:31.786Z,981.45
2024-03-02T00:35:31.760Z,981.51
2024-03-02T00:36:31.761Z,981.46
2024-03-02T00:37:31.752Z,981.47
2024-03-02T00:38:31.743Z,981.49
2024-03-02T00:39:31.743Z,981.46
2024-03-02T00:40:31.734Z,981.45
2024-03-02T00:41:31.764Z,981.46
2024-03-02T00:42:31.745Z,981.47
2024-03-02T00:43:31.720Z,981.47
2024-03-02T00:44:31.705Z,981.50
2024-03-02T00:45:31.726Z,981.49
2024-03-02T00:46:31.696Z,981.42
2024-03-02T00:47:31.693Z,981.45
2024-03-02T00:48:31.739Z,981.42
2024-03-02T00:49:31.659Z,981.42
2024-03-02T00:50:31.666Z,981.40
2024-03-02T00:51:31.741Z,981.41
2024-03-02T00:52:31.648Z,981.40
2024-03-02T00:53:31.629Z,981.39
2024-03-02T00:54:31.649Z,981.39
2024-03-02T00:55:31.629Z,981.38
2024-03-02T00:56:31.607Z,981.31
2024-03-02T00:57:31.721Z,981.42
2024-03-02T00:58:31.599Z,981.33
2024-03-02T00:59:31.596Z,981.32
2024-03-02T01:00:31.639Z,981.45
2024-03-02T01:01:31.635Z,981.43
2024-03-02T01:02:31.581Z,981.30
2024-03-02T01:03:31.665Z,981.32
2024-03-02T01:04:31.629Z,981.42
2024-03-02T01:05:31.576Z,981.42
2024-03-02T01:06:31.648Z,981.41
2024-03-02T01:07:31.540Z,981.30
2024-03-02T01:08:31.653Z,981.41
2024-03-02T01:09:31.567Z,981.33
2024-03-02T01:10:31.524Z,981.39
2024-03-02T01:11:31.518Z,981.39
2024-03-02T01:12:31.540Z,981.45
2024-03-02T01:13:31.531Z,981.38
2024-03-02T01:14:31.501Z,981.40
2024-03-02T01:15:31.508Z,981.39
2024-03-02T01:16:31.476Z,981.38
2024-03-02T01:17:31.486Z,981.27
2024-03-02T01:18:31.497Z,981.33
2024-03-02T01:19:31.504Z,981.29
2024-03-02T01:20:31.478Z,981.28
2024-03-02T01:21:31.470Z,981.33
2024-03-02T01:22:31.461Z,981.32
2024-03-02T01:23:31.441Z,981.34
2024-03-02T01:24:31.474Z,981.31
2024-03-02T01:25:31.439Z,981.30
2024-03-02T01:26:31.489Z,981.35
2024-03-02T01:27:31.420Z,981.33
2024-03-02T01:28:31.418Z,981.30
2024-03-02T01:29:31.438Z,981.32
2024-03-02T01:30:31.433Z,981.30
2024-03-02T01:31:31.400Z,981.30
2024-03-02T01:32:31.388Z,981.30
2024-03-02T01:33:31.401Z,981.29
2024-03-02T01:34:31.374Z,981.35
2024-03-02T01:35:31.354Z,981.28
2024-03-02T01:36:31.647Z,981.32
2024-03-02T01:37:31.346Z,981.27
2024-03-02T01:38:31.334Z,981.25
2024-03-02T01:39:31.422Z,981.25
2024-03-02T01:40:31.338Z,981.27
2024-03-02T01:41:31.327Z,981.24
2024-03-02T01:42:31.577Z,981.21
2024-03-02T01:43:31.311Z,981.24
2024-03-02T01:44:31.346Z,981.17
2024-03-02T01:45:31.325Z,981.18
2024-03-02T01:46:31.281Z,981.19
2024-03-02T01:47:31.311Z,981.26
2024-03-02T01:48:31.318Z,981.15
2024-03-02T01:49:31.253Z,981.16
2024-03-02T01:50:31.273Z,981.20
2024-03-02T01:51:31.287Z,981.17
2024-03-02T01:52:31.260Z,981.15
2024-03-02T01:53:32.233Z,981.08
2024-03-02T01:54:31.291Z,981.15
2024-03-02T01:55:31.368Z,981.16
2024-03-02T01:56:31.219Z,981.13
2024-03-02T01:57:31.246Z,981.12
2024-03-02T01:58:31.222Z,981.08
2024-03-02T01:59:31.291Z,981.08
2024-03-02T02:00:31.233Z,981.16
2024-03-02T02:01:31.218Z,981.12
2024-03-02T02:02:31.180Z,981.15
2024-03-02T02:03:31.222Z,981.10
2024-03-02T02:04:31.243Z,981.11
2024-03-02T02:05:31.153Z,981.10
2024-03-02T02:06:31.175Z,981.08
2024-03-02T02:07:31.138Z,981.13
2024-03-02T02:08:31.131Z,981.08
2024-03-02T02:09:31.173Z,981.06
2024-03-02T02:10:31.131Z,981.03
2024-03-02T02:11:31.148Z,981.02
2024-03-02T02:12:31.127Z,981.03
2024-03-02T02:13:31.101Z,981.01
2024-03-02T02:14:31.102Z,981.00
2024-03-02T02:15:31.232Z,980.98
2024-03-02T02:16:31.089Z,980.95
2024-03-02T02:17:31.086Z,980.97
2024-03-02T02:18:31.076Z,981.02
2024-03-02T02:19:31.071Z,980.99
2024-03-02T02:20:31.068Z,980.94
2024-03-02T02:21:31.104Z,980.94
2024-03-02T02:22:31.046Z,980.94
2024-03-02T02:23:31.043Z,980.91
2024-03-02T02:24:31.036Z,980.84
2024-03-02T02:25:31.154Z,980.81
2024-03-02T02:26:31.015Z,980.81
2024-03-02T02:27:31.049Z,980.85
2024-03-02T02:28:31.002Z,980.92
2024-03-02T02:29:30.999Z,980.81
2024-03-02T02:30:31.083Z,980.84
2024-03-02T02:31:30.986Z,980.88
2024-03-02T02:32:30.986Z,980.84
2024-03-02T02:33:30.991Z,980.81
2024-03-02T02:34:30.970Z,980.79
2024-03-02T02:35:30.974Z,980.82
2024-03-02T02:36:30.981Z,980.74
2024-03-02T02:37:30.934Z,980.74
2024-03-02T02:38:30.954Z,980.81
2024-03-02T02:39:30.976Z,980.79
2024-03-02T02:40:30.923Z,980.78
2024-03-02T02:41:30.946Z,980.78
2024-03-02T02:42:30.994Z,980.72
2024-03-02T02:43:30.905Z,980.77
2024-03-02T02:44:30.920Z,980.75
2024-03-02T02:45:30.972Z,980.73
2024-03-02T02:46:30.894Z,980.83
2024-03-02T02:47:30.925Z,980.79
2024-03-02T02:48:30.909Z,980.77
2024-03-02T02:49:30.861Z,980.73
2024-03-02T02:50:30.867Z,980.78
2024-03-02T02:51:30.895Z,980.72
2024-03-02T02:52:30.841Z,980.71
2024-03-02T02:53:30.867Z,980.73
2024-03-02T02:54:30.858Z,980.76
2024-03-02T02:55:30.882Z,980.67
2024-03-02T02:56:30.828Z,980.70
2024-03-02T02:57:30.874Z,980.70
2024-03-02T02:58:30.797Z,980.68
2024-03-02T02:59:30.805Z,980.70
2024-03-02T03:00:30.981Z,980.77
2024-03-02T03:01:30.944Z,980.70
2024-03-02T03:02:30.805Z,980.76
2024-03-02T03:03:30.820Z,980.69
2024-03-02T03:04:30.760Z,980.69
2024-03-02T03:05:30.763Z,980.68
2024-03-02T03:06:30.780Z,980.71
2024-03-02T03:07:30.744Z,980.75
2024-03-02T03:08:30.748Z,980.73
2024-03-02T03:09:30.769Z,980.70
2024-03-02T03:10:30.720Z,980.65
2024-03-02T03:11:30.789Z,980.67
2024-03-02T03:12:30.745Z,980.63
2024-03-02T03:13:30.707Z,980.59
2024-03-02T03:14:30.698Z,980.65
2024-03-02T03:15:30.731Z,980.65
2024-03-02T03:16:30.733Z,980.63
2024-03-02T03:17:30.713Z,980.62
2024-03-02T03:18:30.717Z,980.59
2024-03-02T03:19:30.674Z,980.61
2024-03-02T03:20:30.660Z,980.53
2024-03-02T03:21:30.682Z,980.62
2024-03-02T03:22:31.249Z,980.61
2024-03-02T03:23:30.641Z,980.58
2024-03-02T03:24:32.265Z,980.60
2024-03-02T03:25:30.630Z,980.53
2024-03-02T03:26:30.628Z,980.53
2024-03-02T03:27:30.645Z,980.54
2024-03-02T03:28:30.624Z,980.57
2024-03-02T03:29:30.611Z,980.56
2024-03-02T03:30:30.608Z,980.52
2024-03-02T03:31:30.594Z,980.59
2024-03-02T03:32:30.572Z,980.55
2024-03-02T03:33:30.612Z,980.57
2024-03-02T03:34:30.600Z,980.55
2024-03-02T03:35:30.580Z,980.56
2024-03-02T03:36:30.561Z,980.61
2024-03-02T03:37:30.553Z,980.52
2024-03-02T03:38:30.568Z,980.53
2024-03-02T03:39:30.553Z,980.55
2024-03-02T03:40:31.531Z,980.53
2024-03-02T03:41:30.528Z,980.52
2024-03-02T03:42:30.518Z,980.49
2024-03-02T03:43:30.528Z,980.47
2024-03-02T03:44:30.501Z,980.51
2024-03-02T03:45:30.552Z,980.49
2024-03-02T03:46:30.486Z,980.54
2024-03-02T03:47:30.503Z,980.55
2024-03-02T03:48:30.506Z,980.47
2024-03-02T03:49:30.499Z,980.44
2024-03-02T03:50:30.465Z,980.46
2024-03-02T03:51:30.466Z,980.47
2024-03-02T03:52:30.460Z,980.53
2024-03-02T03:53:30.462Z,980.52
2024-03-02T03:54:30.489Z,980.54
2024-03-02T03:55:30.459Z,980.56
2024-03-02T03:56:30.419Z,980.61
2024-03-02T03:57:30.438Z,980.56
2024-03-02T03:58:30.428Z,980.66
2024-03-02T03:59:30.432Z,980.65
2024-03-02T04:00:30.413Z,980.61
2024-03-02T04:01:30.433Z,980.59
2024-03-02T04:02:30.391Z,980.59
2024-03-02T04:03:30.388Z,980.58
2024-03-02T04:04:30.358Z,980.54
2024-03-02T04:05:30.418Z,980.52
2024-03-02T04:06:30.359Z,980.53
2024-03-02T04:07:30.341Z,980.47
2024-03-02T04:08:30.355Z,980.44
2024-03-02T04:09:30.353Z,980.51
2024-03-02T04:10:30.341Z,980.49
2024-03-02T04:11:31.358Z,980.44
2024-03-02T04:12:30.340Z,980.53
2024-03-02T04:13:30.317Z,980.47
2024-03-02T04:14:30.310Z,980.56
2024-03-02T04:15:30.315Z,980.56
2024-03-02T04:16:30.288Z,980.54
2024-03-02T04:17:30.304Z,980.56
2024-03-02T04:18:30.280Z,980.54
2024-03-02T04:19:30.314Z,980.52
2024-03-02T04:20:30.368Z,980.58
2024-03-02T04:21:30.311Z,980.55
2024-03-02T04:22:30.282Z,980.53
2024-03-02T04:23:30.237Z,980.51
2024-03-02T04:24:30.288Z,980.52
2024-03-02T04:25:30.238Z,980.51
2024-03-02T04:26:30.231Z,980.55
2024-03-02T04:27:30.250Z,980.56
2024-03-02T04:28:30.207Z,980.57
2024-03-02T04:29:30.204Z,980.60
2024-03-02T04:30:30.223Z,980.55
2024-03-02T04:31:30.203Z,980.59
2024-03-02T04:32:30.519Z,980.55
2024-03-02T04:33:30.255Z,980.54
2024-03-02T04:34:30.871Z,980.56
2024-03-02T04:35:30.173Z,980.51
2024-03-02T04:36:30.205Z,980.55
2024-03-02T04:37:30.198Z,980.59
2024-03-02T04:38:30.144Z,980.60
2024-03-02T04:39:30.430Z,980.61
2024-03-02T04:40:30.151Z,980.64
2024-03-02T04:41:30.128Z,980.64
2024-03-02T04:42:30.256Z,980.58
2024-03-02T04:43:30.128Z,980.65
2024-03-02T04:44:30.160Z,980.60
2024-03-02T04:45:30.221Z,980.61
2024-03-02T04:46:30.098Z,980.62
2024-03-02T04:47:30.101Z,980.60
2024-03-02T04:48:30.191Z,980.64
2024-03-02T04:49:30.216Z,980.61
2024-03-02T04:50:30.079Z,980.60
2024-03-02T04:51:30.142Z,980.61
2024-03-02T04:52:30.079Z,980.66
2024-03-02T04:53:30.030Z,980.66
2024-03-02T04:54:30.095Z,980.64
2024-03-02T04:55:30.034Z,980.66
2024-03-02T04:56:30.012Z,980.69
2024-03-02T04:57:30.043Z,980.67
2024-03-02T04:58:30.039Z,980.66
2024-03-02T04:59:30.665Z,980.71
2024-03-02T05:00:30.086Z,980.73
2024-03-02T05:01:30.085Z,980.76
2024-03-02T05:02:29.971Z,980.67
2024-03-02T05:03:30.003Z,980.73
2024-03-02T05:04:29.970Z,980.71
2024-03-02T05:05:29.972Z,980.75
2024-03-02T05:06:29.948Z,980.68
2024-03-02T05:07:29.962Z,980.70
2024-03-02T05:08:29.943Z,980.75
2024-03-02T05:09:29.974Z,980.68
2024-03-02T05:10:29.912Z,980.68
2024-03-02T05:11:29.930Z,980.71
2024-03-02T05:12:29.978Z,980.81
2024-03-02T05:13:29.966Z,980.74
2024-03-02T05:14:29.921Z,980.81
2024-03-02T05:15:29.987Z,980.82
2024-03-02T05:16:29.870Z,980.80
2024-03-02T05:17:29.923Z,980.75
2024-03-02T05:18:29.884Z,980.79
2024-03-02T05:19:29.865Z,980.82
2024-03-02T05:20:29.852Z,980.84
2024-03-02T05:21:29.861Z,980.85
2024-03-02T05:22:29.842Z,980.80
2024-03-02T05:23:29.822Z,980.72
2024-03-02T05:24:29.856Z,980.86
2024-03-02T05:25:29.816Z,980.83
2024-03-02T05:26:29.816Z,980.88
2024-03-02T05:27:29.844Z,980.90
2024-03-02T05:28:29.811Z,980.86
2024-03-02T05:29:29.797Z,980.87
2024-03-02T05:30:29.816Z,980.85
2024-03-02T05:31:29.780Z,980.85
2024-03-02T05:32:29.785Z,980.84
2024-03-02T05:33:29.911Z,980.87
2024-03-02T05:34:29.880Z,980.90
2024-03-02T05:35:29.750Z,980.92
2024-03-02T05:36:29.756Z,980.93
2024-03-02T05:37:29.736Z,980.96
2024-03-02T05:38:29.725Z,980.97
2024-03-02T05:39:30.881Z,980.95
2024-03-02T05:40:29.707Z,980.94
2024-03-02T05:41:29.703Z,980.92
2024-03-02T05:42:29.781Z,981.01
2024-03-02T05:43:29.719Z,980.99
2024-03-02T05:44:29.719Z,981.02
2024-03-02T05:45:30.785Z,980.97
2024-03-02T05:46:29.677Z,980.98
2024-03-02T05:47:29.711Z,980.97
2024-03-02T05:48:29.693Z,980.98
2024-03-02T05:49:29.661Z,980.98
2024-03-02T05:50:29.655Z,981.04
2024-03-02T05:51:29.653Z,980.97
2024-03-02T05:52:29.680Z,981.04
2024-03-02T05:53:29.642Z,981.03
2024-03-02T05:54:29.730Z,981.03
2024-03-02T05:55:29.614Z,980.96
2024-03-02T05:56:29.609Z,981.01
2024-03-02T05:57:29.646Z,981.02
2024-03-02T05:58:30.261Z,981.04
2024-03-02T05:59:29.592Z,981.08
2024-03-02T06:00:29.703Z,981.07
2024-03-02T06:01:29.856Z,981.06
2024-03-02T06:02:29.570Z,981.11
2024-03-02T06:03:29.743Z,981.12
2024-03-02T06:04:29.577Z,981.12
2024-03-02T06:05:29.554Z,981.16
2024-03-02T06:06:29.612Z,981.10
2024-03-02T06:07:29.581Z,981.06
2024-03-02T06:08:29.561Z,981.07
2024-03-02T06:09:29.572Z,981.05
2024-03-02T06:10:29.515Z,981.05
2024-03-02T06:11:29.594Z,981.10
2024-03-02T06:12:29.524Z,981.07
2024-03-02T06:13:29.494Z,981.02
2024-03-02T06:14:29.533Z,981.06
2024-03-02T06:15:29.563Z,981.04
2024-03-02T06:16:29.471Z,981.16
2024-03-02T06:17:29.543Z,981.15
2024-03-02T06:18:29.635Z,981.16
2024-03-02T06:19:29.475Z,981.17
2024-03-02T06:20:31.092Z,981.22
2024-03-02T06:21:29.500Z,981.23
2024-03-02T06:22:29.441Z,981.23
2024-03-02T06:23:29.456Z,981.29
2024-03-02T06:24:29.436Z,981.31
2024-03-02T06:25:29.484Z,981.29
2024-03-02T06:26:29.424Z,981.20
2024-03-02T06:27:29.455Z,981.16
2024-03-02T06:28:29.418Z,981.17
2024-03-02T06:29:29.402Z,981.23
2024-03-02T06:30:29.435Z,981.22
2024-03-02T06:31:29.416Z,981.26
2024-03-02T06:32:29.407Z,981.29
2024-03-02T06:33:29.429Z,981.30
2024-03-02T06:34:29.360Z,981.39
2024-03-02T06:35:29.370Z,981.34
2024-03-02T06:36:29.532Z,981.41
2024-03-02T06:37:29.350Z,981.44
2024-03-02T06:38:29.329Z,981.46
2024-03-02T06:39:30.279Z,981.46
2024-03-02T06:40:29.310Z,981.50
2024-03-02T06:41:29.326Z,981.48
2024-03-02T06:42:29.323Z,981.45
2024-03-02T06:43:29.301Z,981.45
2024-03-02T06:44:29.297Z,981.40
2024-03-02T06:45:29.308Z,981.41
2024-03-02T06:46:29.281Z,981.39
2024-03-02T06:47:29.298Z,981.40
2024-03-02T06:48:29.266Z,981.48
2024-03-02T06:49:29.249Z,981.42
2024-03-02T06:50:30.259Z,981.38
2024-03-02T06:51:29.318Z,981.43
2024-03-02T06:52:29.237Z,981.48
2024-03-02T06:53:29.226Z,981.52
2024-03-02T06:54:29.312Z,981.41
2024-03-02T06:55:29.276Z,981.41
2024-03-02T06:56:29.230Z,981.51
2024-03-02T06:57:29.230Z,981.41
2024-03-02T06:58:29.218Z,981.45
2024-03-02T06:59:29.186Z,981.48
2024-03-02T07:00:29.217Z,981.49
2024-03-02T07:01:29.314Z,981.45
2024-03-02T07:02:29.178Z,981.49
2024-03-02T07:03:29.201Z,981.51
2024-03-02T07:04:29.739Z,981.52
2024-03-02T07:05:29.157Z,981.52
2024-03-02T07:06:29.262Z,981.56
2024-03-02T07:07:29.222Z,981.57
2024-03-02T07:08:29.125Z,981.62
2024-03-02T07:09:30.240Z,981.66
2024-03-02T07:10:29.130Z,981.59
2024-03-02T07:11:29.155Z,981.60
2024-03-02T07:12:29.142Z,981.56
2024-03-02T07:13:29.100Z,981.53
2024-03-02T07:14:29.101Z,981.60
2024-03-02T07:15:29.129Z,981.58
2024-03-02T07:16:29.294Z,981.64
2024-03-02T07:17:29.123Z,981.57
2024-03-02T07:18:29.097Z,981.59
2024-03-02T07:19:29.078Z,981.56
2024-03-02T07:20:29.072Z,981.60
2024-03-02T07:21:29.089Z,981.63
2024-03-02T07:22:29.059Z,981.61
2024-03-02T07:23:29.064Z,981.58
2024-03-02T07:24:29.052Z,981.63
2024-03-02T07:27:30.062Z,981.70
2024-03-02T07:28:29.009Z,981.62
2024-03-02T07:29:29.171Z,981.63
2024-03-02T07:30:30.340Z,981.64
2024-03-02T07:31:29.004Z,981.62
2024-03-02T07:32:28.993Z,981.67
2024-03-02T07:33:29.025Z,981.70
2024-03-02T07:34:28.978Z,981.69
2024-03-02T07:35:29.067Z,981.69
2024-03-02T07:36:29.056Z,981.64
2024-03-02T07:37:28.947Z,981.65
2024-03-02T07:38:28.980Z,981.67
2024-03-02T07:39:28.962Z,981.66
2024-03-02T07:40:28.933Z,981.63
2024-03-02T07:41:28.943Z,981.65
2024-03-02T07:42:28.977Z,981.66
2024-03-02T07:43:28.939Z,981.67
2024-03-02T07:44:28.915Z,981.72
2024-03-02T07:45:28.979Z,981.66
2024-03-02T07:46:28.879Z,981.61
2024-03-02T07:47:28.921Z,981.66
2024-03-02T07:48:28.896Z,981.67
2024-03-02T07:49:28.875Z,981.71
2024-03-02T07:50:28.859Z,981.73
2024-03-02T07:51:28.861Z,981.74
2024-03-02T07:52:28.853Z,981.77
2024-03-02T07:53:28.827Z,981.78
2024-03-02T07:54:28.890Z,981.75
2024-03-02T07:55:28.867Z,981.77
2024-03-02T07:56:28.876Z,981.80
2024-03-02T07:57:28.822Z,981.82
2024-03-02T07:58:28.815Z,981.82
2024-03-02T07:59:28.810Z,981.79
2024-03-02T08:00:28.814Z,981.85
2024-03-02T08:01:29.036Z,981.87
2024-03-02T08:02:28.787Z,981.88
2024-03-02T08:03:28.808Z,981.82
2024-03-02T08:04:28.761Z,981.86
2024-03-02T08:05:28.763Z,981.84
2024-03-02T08:06:28.790Z,981.82
2024-03-02T08:07:28.736Z,981.86
2024-03-02T08:08:28.734Z,981.85
2024-03-02T08:09:28.741Z,981.87
2024-03-02T08:10:28.739Z,981.89
2024-03-02T08:11:28.855Z,981.89
2024-03-02T08:12:28.729Z,981.80
2024-03-02T08:13:28.691Z,981.85
2024-03-02T08:14:29.245Z,981.81
2024-03-02T08:15:28.732Z,981.86
2024-03-02T08:16:29.724Z,981.83
2024-03-02T08:17:28.689Z,981.88
2024-03-02T08:18:28.697Z,981.87
2024-03-02T08:19:28.653Z,981.91
2024-03-02T08:20:28.654Z,981.90
2024-03-02T08:21:28.704Z,981.96
2024-03-02T08:22:28.652Z,981.92
2024-03-02T08:23:28.631Z,981.87
2024-03-02T08:24:28.643Z,981.95
2024-03-02T08:25:28.621Z,981.87
2024-03-02T08:26:28.605Z,981.88
2024-03-02T08:27:28.653Z,981.84
2024-03-02T08:28:28.751Z,981.88
2024-03-02T08:29:28.579Z,981.89
2024-03-02T08:30:28.631Z,981.91
2024-03-02T08:31:28.572Z,981.89
2024-03-02T08:32:28.684Z,981.88
2024-03-02T08:33:28.605Z,981.84
2024-03-02T08:34:28.606Z,981.86
2024-03-02T08:35:28.568Z,981.89
2024-03-02T08:36:28.545Z,981.88
2024-03-02T08:37:28.566Z,981.91
2024-03-02T08:38:28.522Z,981.78
2024-03-02T08:39:28.551Z,981.75
2024-03-02T08:40:28.520Z,981.81
2024-03-02T08:41:28.522Z,981.74
2024-03-02T08:42:28.533Z,981.75
2024-03-02T08:43:28.499Z,981.74
2024-03-02T08:44:28.510Z,981.69
2024-03-02T08:45:28.534Z,981.75
2024-03-02T08:46:28.480Z,981.75
2024-03-02T08:47:28.509Z,981.76
2024-03-02T08:48:28.490Z,981.80
2024-03-02T08:49:28.443Z,981.73
2024-03-02T08:50:28.439Z,981.76
2024-03-02T08:51:28.518Z,981.78
2024-03-02T08:52:28.466Z,981.76
2024-03-02T08:53:28.440Z,981.73
2024-03-02T08:54:28.442Z,981.74
2024-03-02T08:55:28.406Z,981.71
2024-03-02T08:56:28.440Z,981.74
2024-03-02T08:57:28.432Z,981.76
2024-03-02T08:58:28.395Z,981.74
2024-03-02T08:59:28.391Z,981.79
2024-03-02T09:00:28.396Z,981.75
2024-03-02T09:01:28.492Z,981.80
2024-03-02T09:02:28.379Z,981.77
2024-03-02T09:03:28.428Z,981.73
2024-03-02T09:04:29.526Z,981.68
2024-03-02T09:05:28.357Z,981.70
2024-03-02T09:06:28.365Z,981.77
2024-03-02T09:07:28.332Z,981.75
2024-03-02T09:08:28.331Z,981.82
2024-03-02T09:09:28.340Z,981.73
2024-03-02T09:10:28.916Z,981.73
2024-03-02T09:11:29.361Z,981.77
2024-03-02T09:12:28.357Z,981.84
2024-03-02T09:13:28.308Z,981.88
2024-03-02T09:14:28.296Z,981.84
2024-03-02T09:15:28.348Z,981.84
2024-03-02T09:16:28.279Z,981.78
2024-03-02T09:17:28.278Z,981.83
2024-03-02T09:18:28.334Z,981.86
2024-03-02T09:19:28.255Z,981.88
2024-03-02T09:20:28.244Z,981.88
2024-03-02T09:21:28.251Z,981.86
2024-03-02T09:22:28.281Z,981.84
2024-03-02T09:23:28.248Z,981.86
2024-03-02T09:24:28.224Z,981.87
2024-03-02T09:25:28.209Z,981.87
2024-03-02T09:26:28.200Z,981.87
2024-03-02T09:27:28.228Z,981.90
2024-03-02T09:28:28.216Z,981.88
2024-03-02T09:29:28.180Z,981.91
2024-03-02T09:30:28.196Z,981.84
2024-03-02T09:31:28.181Z,981.88
2024-03-02T09:32:28.189Z,981.87
2024-03-02T09:33:28.322Z,981.91
2024-03-02T09:34:28.174Z,981.77
2024-03-02T09:35:28.220Z,981.86
2024-03-02T09:36:28.143Z,981.79
2024-03-02T09:37:28.147Z,981.82
2024-03-02T09:38:28.157Z,981.85
2024-03-02T09:39:28.157Z,981.90
2024-03-02T09:40:28.163Z,981.94
2024-03-02T09:41:28.114Z,981.95
2024-03-02T09:42:28.134Z,981.91
2024-03-02T09:43:28.088Z,981.88
2024-03-02T09:44:28.089Z,981.79
2024-03-02T09:45:28.164Z,981.90
2024-03-02T09:46:28.075Z,981.84
2024-03-02T09:47:28.127Z,981.89
2024-03-02T09:48:28.062Z,981.84
2024-03-02T09:49:28.069Z,981.86
2024-03-02T09:50:28.044Z,981.87
2024-03-02T09:51:28.076Z,981.84
2024-03-02T09:52:28.019Z,981.85
2024-03-02T09:53:28.045Z,981.80
2024-03-02T09:54:28.086Z,981.83
2024-03-02T09:55:28.036Z,981.82
2024-03-02T09:56:28.002Z,981.77
2024-03-02T09:57:27.998Z,981.79
2024-03-02T09:58:27.998Z,981.84
2024-03-02T09:59:27.981Z,981.72
2024-03-02T10:00:27.990Z,981.82
2024-03-02T10:01:28.019Z,981.89
2024-03-02T10:02:27.969Z,981.92
2024-03-02T10:03:27.979Z,981.89
2024-03-02T10:04:27.989Z,981.88
2024-03-02T10:05:27.957Z,981.94
2024-03-02T10:06:27.959Z,981.87
2024-03-02T10:07:27.930Z,981.93
2024-03-02T10:08:27.917Z,981.95
2024-03-02T10:09:27.920Z,981.85
2024-03-02T10:10:27.919Z,981.91
2024-03-02T10:11:27.906Z,981.81
2024-03-02T10:12:27.923Z,981.72
2024-03-02T10:13:27.881Z,981.63
2024-03-02T10:14:27.878Z,981.64
2024-03-02T10:15:27.961Z,981.57
2024-03-02T10:16:27.858Z,981.53
2024-03-02T10:17:27.871Z,981.49
2024-03-02T10:18:27.907Z,981.57
2024-03-02T10:19:27.844Z,981.48
2024-03-02T10:20:27.846Z,981.50
2024-03-02T10:21:27.836Z,981.41
2024-03-02T10:22:27.823Z,981.48
2024-03-02T10:23:28.736Z,981.48
2024-03-02T10:24:27.848Z,981.52
2024-03-02T10:25:37.337Z,981.52
2024-03-02T10:26:29.815Z,981.49
2024-03-02T10:27:27.824Z,981.52
2024-03-02T10:28:27.780Z,981.45
2024-03-02T10:29:27.782Z,981.46
2024-03-02T10:30:27.786Z,981.43
2024-03-02T10:31:27.773Z,981.45
2024-03-02T10:32:27.779Z,981.40
2024-03-02T10:33:27.759Z,981.45
2024-03-02T10:34:27.737Z,981.49
2024-03-02T10:35:27.729Z,981.50
2024-03-02T10:36:27.815Z,981.43
2024-03-02T10:37:27.734Z,981.57
2024-03-02T10:38:27.724Z,981.50
2024-03-02T10:39:27.755Z,981.42
2024-03-02T10:40:27.711Z,981.37
2024-03-02T10:41:27.689Z,981.48
2024-03-02T10:42:27.721Z,981.52
2024-03-02T10:43:27.690Z,981.54
2024-03-02T10:44:27.689Z,981.53
2024-03-02T10:45:27.686Z,981.55
2024-03-02T10:46:27.656Z,981.44
2024-03-02T10:47:27.679Z,981.57
2024-03-02T10:48:27.663Z,981.58
2024-03-02T10:49:27.658Z,981.58
2024-03-02T10:50:27.668Z,981.60
2024-03-02T10:51:27.636Z,981.61
2024-03-02T10:52:27.617Z,981.61
2024-03-02T10:53:27.623Z,981.43
2024-03-02T10:54:28.053Z,981.35
2024-03-02T10:55:27.987Z,981.28
2024-03-02T10:56:27.624Z,981.42
2024-03-02T10:57:27.743Z,981.26
2024-03-02T10:58:27.794Z,981.21
2024-03-02T10:59:27.700Z,981.37
2024-03-02T11:00:27.632Z,981.43
2024-03-02T11:01:27.630Z,981.39
2024-03-02T11:02:27.549Z,981.36
2024-03-02T11:03:27.566Z,981.38
2024-03-02T11:04:27.541Z,981.53
2024-03-02T11:05:27.539Z,981.46
2024-03-02T11:06:27.537Z,981.46
2024-03-02T11:07:27.537Z,981.48
2024-03-02T11:08:27.516Z,981.42
2024-03-02T11:09:27.797Z,981.41
2024-03-02T11:10:27.510Z,981.40
2024-03-02T11:11:27.557Z,981.42
2024-03-02T11:12:27.540Z,981.42
2024-03-02T11:13:27.498Z,981.35
2024-03-02T11:14:27.487Z,981.36
2024-03-02T11:15:27.514Z,981.27
2024-03-02T11:16:27.494Z,981.25
2024-03-02T11:17:27.458Z,981.11
2024-03-02T11:18:27.491Z,981.04
2024-03-02T11:19:27.567Z,980.98
2024-03-02T11:20:27.477Z,980.80
2024-03-02T11:21:27.480Z,980.96
2024-03-02T11:22:27.429Z,980.85
2024-03-02T11:23:27.418Z,980.75
2024-03-02T11:24:27.533Z,980.60
2024-03-02T11:25:27.433Z,980.77
2024-03-02T11:26:27.408Z,980.75
2024-03-02T11:27:27.585Z,980.83
2024-03-02T11:28:27.394Z,980.79
2024-03-02T11:29:27.381Z,980.90
2024-03-02T11:30:27.391Z,981.00
2024-03-02T11:31:27.522Z,981.00
2024-03-02T11:32:27.390Z,980.99
2024-03-02T11:33:27.463Z,981.00
2024-03-02T11:34:27.353Z,981.01
2024-03-02T11:35:27.388Z,981.09
2024-03-02T11:36:27.397Z,981.12
2024-03-02T11:37:27.330Z,981.11
2024-03-02T11:38:27.389Z,981.04
2024-03-02T11:39:27.360Z,981.08
2024-03-02T11:40:27.324Z,981.01
2024-03-02T11:41:27.326Z,981.01
2024-03-02T11:42:27.307Z,981.08
2024-03-02T11:43:27.296Z,981.09
2024-03-02T11:44:27.286Z,981.05
2024-03-02T11:45:27.284Z,981.05
2024-03-02T11:46:27.267Z,981.01
2024-03-02T11:47:27.294Z,981.00
2024-03-02T11:48:27.285Z,981.06
2024-03-02T11:49:27.252Z,981.07
2024-03-02T11:50:27.278Z,981.11
2024-03-02T11:51:27.255Z,981.09
2024-03-02T11:52:27.221Z,981.08
2024-03-02T11:53:27.242Z,981.19
2024-03-02T11:54:27.243Z,981.25
2024-03-02T11:55:27.200Z,981.23
2024-03-02T11:56:27.201Z,981.13
2024-03-02T11:57:27.196Z,981.17
2024-03-02T11:58:27.203Z,981.17
2024-03-02T11:59:27.189Z,981.19
2024-03-02T12:00:27.252Z,981.11
2024-03-02T12:01:27.891Z,981.08
2024-03-02T12:02:27.178Z,981.10
2024-03-02T12:03:27.632Z,981.09
2024-03-02T12:04:27.167Z,981.18
2024-03-02T12:05:27.156Z,981.10
2024-03-02T12:06:27.165Z,981.12
2024-03-02T12:07:27.127Z,981.12
2024-03-02T12:08:27.140Z,981.13
2024-03-02T12:09:27.141Z,981.13
2024-03-02T12:10:27.110Z,981.11
2024-03-02T12:11:27.128Z,980.45
2024-03-02T12:12:27.139Z,980.44
2024-03-02T12:13:27.086Z,980.47
2024-03-02T12:14:27.086Z,980.50
2024-03-02T12:15:27.098Z,980.47
2024-03-02T12:16:27.125Z,980.43
2024-03-02T12:17:27.060Z,980.44
2024-03-02T12:18:27.593Z,980.45
2024-03-02T12:19:27.044Z,980.48
2024-03-02T12:20:27.035Z,980.46
2024-03-02T12:21:27.039Z,980.50
2024-03-02T12:22:27.020Z,980.50
2024-03-02T12:23:27.088Z,980.47
2024-03-02T12:24:27.013Z,980.48
2024-03-02T12:25:26.992Z,980.46
2024-03-02T12:26:26.992Z,980.41
2024-03-02T12:27:27.012Z,980.46
2024-03-02T12:28:26.996Z,980.51
2024-03-02T12:29:26.967Z,980.46
2024-03-02T12:30:27.017Z,980.44